Montpelier, North Dakota
Current Conditions -  °F | °C
As of 9:04 PM on Tuesday 25 Nov 2014 (Local Time) from KJMS Reporting Station
Light Snow Light Snow  
Wind Chill:   Ceiling: 1500
Heat Index: 20°   Visibility: 1.5mi
Dew Point: 17°   Wind: 22mph
Humidity: 89%   Direction: 60°ENE
Pressure: 29.91"   Gusts: 28mph
Location:  46.7°N, 98.59°W
Report Text: KJMS 260304Z AUTO 06019G24KT 1 1/2SM -SN BR OVC015 M07/M08 A2991 RMK AO2 P0000 T10671083
Loading
Personal Weather Stations






























Interactive Weather Map New forecast layout! Learn more

10-Day Weather Forecast

Advertisements
Track Severe Weather on mobile